Terminal Aerodrome Forecast
Issued by NWS

Home | Current Version | Previous Version | Text Only | Print | Product List | Glossary On
Versions: 1 2 3 4 5 6 7 8 9 10 11 12
826
FTUS45 KABQ 261122
TAFFMN
TAF
KFMN 261122Z 2612/2712 08006KT P6SM SCT120
     FM261700 23008KT P6SM SCT120
     FM262000 28015G22KT P6SM SCT100
     FM270200 28012KT P6SM FEW150=

USA.gov is the U.S. government's official web portal to all federal, state and local government web resources and services.